Time;durP1;ratioP1;P1;durP2;ratioP2;P2;SDS_P1;SDS_P2;PMS_P1;PMS_P2;Temp;Humidity;BMP_temperature;BMP_pressure;BME280_temperature;BME280_humidity;BME280_pressure;Samples;Min_cycle;Max_cycle;Signal;HPM_P1;HPM_P2
2023/08/28 00:00:38;;;;;;;2.90;2.33;;;12.60;99.90;;;;;;5034560;28;20075;-85
2023/08/28 00:03:04;;;;;;;4.93;2.40;;;12.70;99.90;;;;;;5012097;28;20063;-85
2023/08/28 00:05:34;;;;;;;3.75;3.00;;;12.80;99.90;;;;;;5015618;28;20488;-85
2023/08/28 00:08:00;;;;;;;5.95;3.00;;;12.70;99.90;;;;;;4999894;28;20048;-85
2023/08/28 00:10:26;;;;;;;7.40;2.97;;;12.70;99.90;;;;;;5021274;28;20033;-84
2023/08/28 00:12:51;;;;;;;3.97;2.63;;;12.70;99.90;;;;;;5027927;28;20843;-84
2023/08/28 00:15:17;;;;;;;7.43;3.67;;;12.60;99.90;;;;;;5035442;28;20041;-85
2023/08/28 00:17:43;;;;;;;3.08;2.58;;;12.70;99.90;;;;;;5035557;28;20136;-85
2023/08/28 00:20:09;;;;;;;4.27;2.70;;;12.70;99.90;;;;;;5032638;28;20124;-86
2023/08/28 00:22:38;;;;;;;3.90;2.47;;;12.70;99.90;;;;;;5018758;28;20045;-86
2023/08/28 00:25:07;;;;;;;8.35;2.90;;;12.60;99.90;;;;;;5035201;28;20407;-85
2023/08/28 00:27:33;;;;;;;4.03;3.00;;;12.70;99.90;;;;;;5002337;28;20045;-86
2023/08/28 00:29:59;;;;;;;5.97;2.70;;;12.60;99.90;;;;;;5019333;28;20053;-85
2023/08/28 00:32:26;;;;;;;5.10;3.67;;;12.70;99.90;;;;;;5033464;28;20041;-86
2023/08/28 00:34:54;;;;;;;5.05;3.28;;;12.60;99.90;;;;;;5003002;28;20089;-86
2023/08/28 00:37:20;;;;;;;3.90;2.80;;;12.50;99.90;;;;;;5012074;28;20041;-86
2023/08/28 00:39:46;;;;;;;7.47;3.73;;;12.60;99.90;;;;;;4996267;28;20046;-85
2023/08/28 00:42:12;;;;;;;4.60;3.40;;;12.60;99.90;;;;;;5020332;28;20073;-87
2023/08/28 00:44:38;;;;;;;6.85;4.45;;;12.50;99.90;;;;;;5032336;28;20092;-85
2023/08/28 00:47:07;;;;;;;8.43;3.30;;;12.60;99.90;;;;;;5031973;28;20052;-85
2023/08/28 00:49:34;;;;;;;6.05;4.00;;;11.90;99.90;;;;;;5029468;28;20049;-85
2023/08/28 00:52:00;;;;;;;4.65;3.95;;;12.50;99.90;;;;;;5030274;28;20045;-86
2023/08/28 00:54:26;;;;;;;4.88;3.90;;;12.40;99.90;;;;;;5030935;28;20052;-85
2023/08/28 00:56:54;;;;;;;3.85;3.45;;;12.40;99.90;;;;;;5014963;28;20049;-85
2023/08/28 00:59:21;;;;;;;4.82;3.35;;;12.40;99.90;;;;;;5024218;28;20068;-86
2023/08/28 01:01:47;;;;;;;3.85;3.45;;;12.40;99.90;;;;;;5003909;28;20049;-85
2023/08/28 01:04:12;;;;;;;4.60;3.08;;;12.40;99.90;;;;;;5012200;28;20046;-85
2023/08/28 01:06:59;;;;;;;6.40;3.60;;;12.40;99.90;;;;;;5011416;28;20041;-85
2023/08/28 01:09:40;;;;;;;5.80;3.53;;;12.40;99.90;;;;;;5015672;28;20288;-86
2023/08/28 01:12:29;;;;;;;5.82;3.58;;;11.10;99.90;;;;;;5029988;28;20049;-85
2023/08/28 01:15:21;;;;;;;6.72;3.65;;;12.20;99.90;;;;;;5001898;28;20089;-85
2023/08/28 01:17:53;;;;;;;8.57;3.28;;;12.30;99.90;;;;;;4995349;28;20057;-85
2023/08/28 01:20:21;;;;;;;5.55;3.42;;;12.20;99.90;;;;;;5017947;28;20477;-86
2023/08/28 01:22:59;;;;;;;5.93;3.53;;;12.20;99.90;;;;;;5000560;28;20161;-85
2023/08/28 01:25:26;;;;;;;7.82;4.13;;;12.20;99.90;;;;;;4995198;28;20145;-86
2023/08/28 01:27:52;;;;;;;6.97;3.83;;;12.10;99.90;;;;;;5011602;28;20049;-85
2023/08/28 01:30:18;;;;;;;7.65;3.83;;;12.10;99.90;;;;;;5027054;28;20038;-85
2023/08/28 01:32:46;;;;;;;4.50;3.65;;;12.10;99.90;;;;;;5004534;28;20042;-85
2023/08/28 01:35:11;;;;;;;5.75;3.60;;;12.10;99.90;;;;;;4982101;28;20061;-86
2023/08/28 01:38:11;;;;;;;4.43;3.60;;;12.10;99.90;;;;;;4991614;28;20069;-85
2023/08/28 01:40:43;;;;;;;8.02;4.85;;;12.10;99.90;;;;;;4975553;28;20046;-85
2023/08/28 01:43:12;;;;;;;7.22;3.70;;;11.30;99.90;;;;;;4977854;28;20051;-85
2023/08/28 01:45:39;;;;;;;4.45;3.50;;;12.90;99.90;;;;;;4991442;28;20494;-86
2023/08/28 01:48:07;;;;;;;4.60;4.03;;;12.00;99.90;;;;;;4993046;28;20058;-85
2023/08/28 01:50:34;;;;;;;5.50;3.42;;;11.90;99.90;;;;;;4975501;28;20053;-85
2023/08/28 01:53:00;;;;;;;3.92;3.50;;;11.90;99.90;;;;;;4997619;28;20042;-85
2023/08/28 01:56:13;;;;;;;6.20;3.37;;;10.90;99.90;;;;;;5011260;28;20046;-85
2023/08/28 01:58:45;;;;;;;5.95;3.65;;;10.60;99.90;;;;;;4975486;28;20378;-85
2023/08/28 02:01:11;;;;;;;6.63;4.47;;;11.80;99.90;;;;;;4975840;28;20049;-85
2023/08/28 02:03:38;;;;;;;4.53;4.13;;;11.70;99.90;;;;;;4991369;28;20043;-85
2023/08/28 02:06:05;;;;;;;9.98;4.20;;;11.70;99.90;;;;;;4992019;28;20047;-85
2023/08/28 02:08:31;;;;;;;4.57;4.15;;;11.70;99.90;;;;;;4974875;28;20444;-85
2023/08/28 02:10:56;;;;;;;5.03;3.83;;;11.60;99.90;;;;;;4975639;28;20049;-85
2023/08/28 02:13:25;;;;;;;5.83;5.13;;;11.70;99.90;;;;;;5008345;28;20177;-85
2023/08/28 02:15:51;;;;;;;6.57;4.55;;;11.70;99.90;;;;;;4996544;28;20039;-85
2023/08/28 02:18:17;;;;;;;8.40;5.78;;;11.60;99.90;;;;;;4991619;28;20046;-85
2023/08/28 02:20:44;;;;;;;8.63;5.67;;;10.40;99.90;;;;;;4991105;28;20131;-85
2023/08/28 02:23:11;;;;;;;10.65;6.05;;;11.60;99.90;;;;;;4977520;28;20046;-84
2023/08/28 02:25:46;;;;;;;8.18;5.40;;;11.60;99.90;;;;;;4978437;28;20054;-85
2023/08/28 02:28:12;;;;;;;7.88;5.78;;;11.60;99.90;;;;;;4994453;28;20046;-85
2023/08/28 02:30:38;;;;;;;7.50;6.70;;;11.70;99.90;;;;;;4995471;28;20039;-85
2023/08/28 02:33:04;;;;;;;7.70;6.75;;;11.60;99.90;;;;;;4994246;28;20301;-85
2023/08/28 02:35:30;;;;;;;7.85;5.15;;;11.80;99.90;;;;;;4993631;28;20481;-86
2023/08/28 02:37:58;;;;;;;5.77;4.57;;;11.70;99.90;;;;;;4994682;28;20113;-84
2023/08/28 02:40:24;;;;;;;6.28;4.70;;;11.70;99.90;;;;;;4978614;28;20285;-85
2023/08/28 02:42:50;;;;;;;5.07;4.55;;;11.70;99.90;;;;;;4977985;28;20050;-85
2023/08/28 02:45:16;;;;;;;6.40;4.35;;;11.60;99.90;;;;;;4994828;28;20397;-85
2023/08/28 02:47:42;;;;;;;9.30;4.83;;;11.60;99.90;;;;;;5002889;28;20096;-84
2023/08/28 02:50:08;;;;;;;7.83;5.53;;;11.60;99.90;;;;;;5013911;28;20500;-85
2023/08/28 02:52:33;;;;;;;6.88;5.60;;;11.60;99.90;;;;;;4997327;28;20497;-85
2023/08/28 02:55:05;;;;;;;8.02;5.85;;;11.60;99.90;;;;;;5004744;28;20053;-85
2023/08/28 02:57:31;;;;;;;7.97;5.72;;;11.50;99.90;;;;;;4962174;28;20039;-86
2023/08/28 02:59:59;;;;;;;6.25;5.65;;;11.60;99.90;;;;;;4994161;28;20100;-85
2023/08/28 03:02:25;;;;;;;9.10;6.50;;;11.50;99.90;;;;;;4994125;28;20046;-85
2023/08/28 03:04:51;;;;;;;8.50;5.33;;;11.50;99.90;;;;;;4977363;28;20084;-85
2023/08/28 03:07:18;;;;;;;6.03;5.37;;;11.50;99.90;;;;;;4978002;28;20153;-85
2023/08/28 03:09:45;;;;;;;6.50;5.90;;;11.50;99.90;;;;;;4993646;28;20046;-85
2023/08/28 03:12:11;;;;;;;;;;;11.50;99.90;;;;;;4978307;28;20047;-85
2023/08/28 03:14:36;;;;;;;9.07;6.00;;;11.50;99.90;;;;;;4993598;28;19972;-86
2023/08/28 03:17:02;;;;;;;6.47;5.87;;;11.50;99.90;;;;;;4978052;28;20047;-85
2023/08/28 03:19:30;;;;;;;7.63;5.50;;;11.50;99.90;;;;;;4961866;28;20493;-85
2023/08/28 03:21:58;;;;;;;10.50;7.10;;;11.40;99.90;;;;;;4976718;28;20108;-85
2023/08/28 03:24:24;;;;;;;9.57;6.15;;;11.40;99.90;;;;;;4995119;28;20125;-85
2023/08/28 03:26:50;;;;;;;11.67;6.77;;;11.40;99.90;;;;;;4993058;28;20559;-85
2023/08/28 03:29:16;;;;;;;12.40;7.23;;;11.40;99.90;;;;;;4977860;28;20125;-85
2023/08/28 03:31:44;;;;;;;8.03;6.93;;;11.40;99.90;;;;;;4977067;28;20108;-85
2023/08/28 03:34:10;;;;;;;9.20;7.25;;;11.40;99.90;;;;;;4960729;28;20046;-85
2023/08/28 03:36:36;;;;;;;7.67;6.87;;;11.40;99.90;;;;;;4978847;28;20281;-85
2023/08/28 03:39:04;;;;;;;8.97;8.07;;;11.40;99.90;;;;;;4992251;28;20077;-85
2023/08/28 03:41:30;;;;;;;8.18;7.10;;;11.40;99.90;;;;;;4978072;28;20046;-85
2023/08/28 03:43:56;;;;;;;9.17;7.27;;;11.50;99.90;;;;;;4976934;28;20341;-85
2023/08/28 03:46:22;;;;;;;7.47;6.63;;;11.40;99.90;;;;;;4993242;28;20050;-85
2023/08/28 03:48:47;;;;;;;6.20;5.43;;;11.30;99.90;;;;;;4993098;28;20038;-84
2023/08/28 03:51:13;;;;;;;7.97;5.97;;;11.40;99.90;;;;;;4961264;28;20061;-85
2023/08/28 03:53:41;;;;;;;8.87;7.50;;;11.30;99.90;;;;;;5005721;28;20050;-85
2023/08/28 03:56:06;;;;;;;7.25;6.47;;;11.30;99.90;;;;;;4993309;28;20116;-85
2023/08/28 03:58:32;;;;;;;8.17;7.17;;;11.30;99.90;;;;;;4993229;28;20046;-85
2023/08/28 04:00:58;;;;;;;7.70;6.87;;;11.30;99.90;;;;;;4976575;28;20046;-85
2023/08/28 04:03:24;;;;;;;8.53;6.50;;;11.20;99.90;;;;;;4993251;28;20056;-85
2023/08/28 04:05:49;;;;;;;7.93;6.80;;;11.20;99.90;;;;;;4976571;28;20050;-86
2023/08/28 04:08:15;;;;;;;11.27;7.03;;;11.30;99.90;;;;;;4991844;28;20042;-85
2023/08/28 04:10:42;;;;;;;9.18;7.38;;;11.20;99.90;;;;;;5012243;28;20085;-86
2023/08/28 04:13:08;;;;;;;8.98;7.63;;;11.20;99.90;;;;;;5012455;28;20057;-85
2023/08/28 04:15:34;;;;;;;9.53;7.63;;;11.30;99.90;;;;;;5012340;28;20050;-85
2023/08/28 04:17:59;;;;;;;8.00;6.93;;;11.20;99.90;;;;;;5011891;28;20042;-85
2023/08/28 04:20:25;;;;;;;8.97;7.43;;;11.20;99.90;;;;;;4996122;28;20037;-85
2023/08/28 04:22:51;;;;;;;8.53;7.70;;;11.20;99.90;;;;;;4986622;28;20085;-85
2023/08/28 04:25:17;;;;;;;10.07;9.03;;;11.20;99.90;;;;;;4976071;28;20049;-85
2023/08/28 04:27:42;;;;;;;10.83;8.10;;;11.20;99.90;;;;;;4975546;28;20088;-85
2023/08/28 04:30:09;;;;;;;9.53;8.50;;;11.20;99.90;;;;;;4976590;28;20042;-85
2023/08/28 04:32:36;;;;;;;9.05;6.97;;;11.20;99.90;;;;;;4976561;28;20374;-85
2023/08/28 04:35:02;;;;;;;10.23;8.52;;;11.30;99.90;;;;;;4975323;28;20456;-85
2023/08/28 04:37:28;;;;;;;7.80;6.40;;;11.30;99.90;;;;;;4976302;28;20140;-85
2023/08/28 04:39:54;;;;;;;14.93;7.60;;;11.20;99.90;;;;;;4976039;28;20093;-85
2023/08/28 04:42:20;;;;;;;9.05;6.82;;;11.10;99.90;;;;;;4992542;28;20053;-85
2023/08/28 04:44:46;;;;;;;12.38;8.13;;;11.20;99.90;;;;;;4974525;28;20148;-85
2023/08/28 04:47:15;;;;;;;9.48;8.48;;;11.10;99.90;;;;;;4976206;28;20477;-85
2023/08/28 04:49:41;;;;;;;11.95;7.40;;;11.10;99.90;;;;;;4992227;28;20563;-85
2023/08/28 04:52:07;;;;;;;10.75;9.10;;;11.10;99.90;;;;;;4991861;28;20054;-85
2023/08/28 04:54:33;;;;;;;11.80;8.57;;;11.10;99.90;;;;;;4976204;28;20054;-85
2023/08/28 04:56:59;;;;;;;9.10;7.57;;;11.00;99.90;;;;;;4991572;28;20772;-86
2023/08/28 04:59:25;;;;;;;9.13;8.10;;;11.00;99.90;;;;;;4960375;28;20116;-85
2023/08/28 05:01:54;;;;;;;9.43;7.57;;;11.20;99.90;;;;;;4975079;28;20155;-86
2023/08/28 05:04:20;;;;;;;9.10;7.22;;;10.40;99.90;;;;;;5008478;28;20528;-85
2023/08/28 05:06:48;;;;;;;9.33;6.60;;;11.10;99.90;;;;;;5010009;28;20042;-85
2023/08/28 05:09:14;;;;;;;9.05;7.05;;;11.20;99.90;;;;;;5011870;28;20351;-85
2023/08/28 05:11:40;;;;;;;;;;;11.10;99.90;;;;;;5009559;28;20174;-85
2023/08/28 05:14:05;;;;;;;9.75;7.20;;;11.10;99.90;;;;;;5010809;28;20758;-84
2023/08/28 05:16:32;;;;;;;9.43;7.40;;;11.10;99.90;;;;;;4999035;28;20081;-85
2023/08/28 05:18:57;;;;;;;8.65;7.03;;;11.10;99.90;;;;;;5010971;28;20504;-85
2023/08/28 05:21:23;;;;;;;10.30;8.23;;;11.30;99.90;;;;;;5011747;28;20053;-85
2023/08/28 05:23:49;;;;;;;9.07;7.90;;;11.20;99.90;;;;;;4980339;28;20133;-86
2023/08/28 05:26:17;;;;;;;10.57;7.70;;;11.20;99.90;;;;;;4975700;28;20080;-85
2023/08/28 05:28:45;;;;;;;10.45;7.95;;;11.30;99.90;;;;;;4991764;28;20485;-85
2023/08/28 05:31:10;;;;;;;9.25;8.32;;;11.30;99.90;;;;;;4975431;28;20289;-84
2023/08/28 05:33:36;;;;;;;11.10;9.33;;;11.40;99.90;;;;;;4976037;28;20141;-84
2023/08/28 05:36:02;;;;;;;12.50;9.97;;;11.50;99.90;;;;;;5013990;28;20132;-84
2023/08/28 05:38:29;;;;;;;10.40;7.38;;;11.60;99.90;;;;;;5004504;28;20385;-84
2023/08/28 05:40:55;;;;;;;11.10;8.95;;;11.90;99.90;;;;;;5034058;28;20053;-84
2023/08/28 05:43:21;;;;;;;9.30;8.47;;;12.30;99.90;;;;;;5002206;28;20048;-86
2023/08/28 05:45:47;;;;;;;8.70;7.90;;;12.40;99.90;;;;;;5052292;28;20403;-89
2023/08/28 05:48:13;;;;;;;;;;;12.90;99.90;;;;;;5031935;28;20597;-88
2023/08/28 05:50:39;;;;;;;10.40;7.82;;;13.10;99.90;;;;;;5009958;28;19921;-86
2023/08/28 05:53:06;;;;;;;10.35;8.00;;;13.40;99.90;;;;;;5033737;28;20045;-85
2023/08/28 05:55:32;;;;;;;8.10;7.32;;;13.70;99.90;;;;;;5016396;28;20048;-86
2023/08/28 05:57:58;;;;;;;8.30;6.88;;;14.00;99.90;;;;;;5035224;28;20125;-86
2023/08/28 06:00:25;;;;;;;12.32;6.22;;;14.40;99.90;;;;;;5018638;28;20510;-88
2023/08/28 06:02:51;;;;;;;6.07;5.47;;;14.60;99.90;;;;;;5029306;28;20124;-86
2023/08/28 06:05:17;;;;;;;7.78;6.40;;;14.50;99.90;;;;;;5037548;28;20056;-86
2023/08/28 06:07:44;;;;;;;5.22;4.72;;;15.10;99.90;;;;;;5035991;28;20040;-85
2023/08/28 06:10:12;;;;;;;7.70;5.55;;;15.20;99.90;;;;;;5037298;28;20081;-84
2023/08/28 06:12:38;;;;;;;6.55;5.45;;;14.30;99.90;;;;;;5058285;28;20044;-83
2023/08/28 06:15:04;;;;;;;6.80;6.17;;;15.60;99.90;;;;;;5054788;28;20044;-84
2023/08/28 06:17:30;;;;;;;6.53;5.80;;;14.80;99.90;;;;;;5017940;28;20288;-85
2023/08/28 06:19:56;;;;;;;7.07;5.72;;;16.00;99.90;;;;;;5017243;28;20042;-85
2023/08/28 06:22:24;;;;;;;5.93;5.40;;;16.10;98.90;;;;;;5034121;28;20125;-86
2023/08/28 06:24:55;;;;;;;7.13;5.35;;;16.30;97.50;;;;;;5001406;28;20049;-85
2023/08/28 06:27:23;;;;;;;6.57;5.90;;;16.50;94.30;;;;;;5017282;28;20064;-87
2023/08/28 06:29:49;;;;;;;5.20;4.72;;;16.60;91.60;;;;;;5017481;28;20045;-85
2023/08/28 06:32:15;;;;;;;6.90;5.95;;;16.80;91.50;;;;;;5034831;28;20144;-84
2023/08/28 06:34:41;;;;;;;6.13;5.15;;;17.00;91.10;;;;;;5000920;28;20198;-84
2023/08/28 06:37:06;;;;;;;5.88;4.93;;;17.30;89.80;;;;;;5036937;28;20060;-84
2023/08/28 06:39:32;;;;;;;5.07;4.53;;;17.40;83.30;;;;;;5014932;28;20069;-84
2023/08/28 06:41:58;;;;;;;6.32;4.53;;;17.50;73.40;;;;;;5031313;28;20041;-84
2023/08/28 06:44:24;;;;;;;5.50;4.97;;;17.20;69.90;;;;;;5054469;28;20056;-84
2023/08/28 06:46:50;;;;;;;5.80;4.47;;;17.70;67.10;;;;;;5054908;28;20052;-86
2023/08/28 06:49:16;;;;;;;4.95;4.50;;;17.90;64.70;;;;;;5004101;28;20045;-84
2023/08/28 06:51:42;;;;;;;5.15;4.22;;;18.10;59.60;;;;;;5020768;28;20479;-85
2023/08/28 06:54:09;;;;;;;4.88;4.38;;;18.10;57.40;;;;;;5036696;28;20495;-85
2023/08/28 06:56:35;;;;;;;4.30;3.90;;;18.40;52.00;;;;;;5033488;28;20049;-85
2023/08/28 06:59:00;;;;;;;6.07;3.92;;;18.40;46.90;;;;;;5035636;28;20380;-86
2023/08/28 07:01:26;;;;;;;4.28;3.75;;;18.70;37.10;;;;;;5020315;28;20099;-87
2023/08/28 07:03:52;;;;;;;3.88;3.58;;;18.80;36.20;;;;;;5020616;28;20095;-87
2023/08/28 07:06:18;;;;;;;4.93;3.85;;;19.00;33.10;;;;;;5019958;28;20480;-87
2023/08/28 07:08:43;;;;;;;4.15;3.75;;;19.10;24.10;;;;;;5035782;28;20045;-85
2023/08/28 07:11:09;;;;;;;6.53;4.40;;;19.10;20.10;;;;;;5011877;28;20053;-84
2023/08/28 07:13:35;;;;;;;3.78;3.47;;;19.10;15.00;;;;;;5020452;28;20052;-84
2023/08/28 07:16:01;;;;;;;5.35;4.43;;;19.20;7.50;;;;;;5054453;28;20049;-84
2023/08/28 07:18:27;;;;;;;4.10;3.70;;;19.30;5.40;;;;;;5036178;28;20049;-84
2023/08/28 07:20:53;;;;;;;3.33;3.03;;;19.40;1.00;;;;;;5053867;28;20690;-84
2023/08/28 07:23:19;;;;;;;5.15;4.45;;;19.60;1.00;;;;;;5053782;28;20048;-84
2023/08/28 07:25:45;;;;;;;4.32;3.47;;;19.70;1.00;;;;;;5036627;28;20427;-85
2023/08/28 07:28:11;;;;;;;;;;;19.80;1.00;;;;;;5053903;28;20513;-85
2023/08/28 07:30:37;;;;;;;3.33;2.97;;;19.70;1.00;;;;;;5019623;28;20019;-84
2023/08/28 07:33:03;;;;;;;3.47;3.00;;;19.80;1.00;;;;;;5036425;28;20079;-84
2023/08/28 07:35:34;;;;;;;3.60;3.17;;;19.80;1.00;;;;;;5053027;28;20061;-84
2023/08/28 07:38:03;;;;;;;5.00;3.72;;;19.90;1.00;;;;;;5036272;28;20059;-83
2023/08/28 07:40:29;;;;;;;4.25;3.28;;;20.00;1.00;;;;;;5053411;28;20040;-84
2023/08/28 07:42:56;;;;;;;4.63;3.25;;;20.00;1.00;;;;;;5036577;28;20411;-84
2023/08/28 07:45:21;;;;;;;;;;;20.00;1.00;;;;;;5036071;28;20468;-89
2023/08/28 07:47:47;;;;;;;3.08;2.42;;;19.90;1.00;;;;;;5019492;28;19970;-86
2023/08/28 07:50:13;;;;;;;4.72;2.75;;;20.10;1.00;;;;;;5019180;28;20136;-86
2023/08/28 07:52:38;;;;;;;2.83;2.60;;;20.10;1.00;;;;;;5036028;28;20045;-87
2023/08/28 07:55:05;;;;;;;6.28;3.55;;;20.10;1.00;;;;;;5035880;28;20056;-86
2023/08/28 07:57:33;;;;;;;4.03;3.05;;;20.00;1.00;;;;;;5035448;28;20102;-87
2023/08/28 07:59:59;;;;;;;2.30;2.10;;;19.90;1.00;;;;;;5053446;28;20052;-87
2023/08/28 08:02:24;;;;;;;3.60;2.42;;;20.10;1.00;;;;;;5018957;28;20102;-84
2023/08/28 08:04:50;;;;;;;4.40;2.25;;;20.10;1.00;;;;;;5053385;28;20041;-85
2023/08/28 08:07:16;;;;;;;3.78;2.72;;;20.10;1.00;;;;;;5052680;28;20041;-86
2023/08/28 08:09:44;;;;;;;3.30;1.98;;;20.10;1.00;;;;;;5035717;28;20102;-84
2023/08/28 08:12:10;;;;;;;2.97;2.35;;;21.00;1.00;;;;;;5035350;28;20057;-86
2023/08/28 08:14:36;;;;;;;2.28;2.08;;;20.00;1.00;;;;;;5052883;28;20047;-87
2023/08/28 08:17:04;;;;;;;3.88;2.13;;;20.00;1.00;;;;;;5036134;28;20541;-87
2023/08/28 08:19:30;;;;;;;2.38;1.70;;;20.00;1.00;;;;;;5052816;28;20087;-83
2023/08/28 08:21:56;;;;;;;2.42;1.50;;;19.90;1.00;;;;;;5035512;28;20476;-84
2023/08/28 08:24:22;;;;;;;3.28;2.10;;;19.90;1.00;;;;;;5037934;28;20095;-86
2023/08/28 08:26:49;;;;;;;1.98;1.60;;;19.90;1.00;;;;;;5020340;28;20041;-88
2023/08/28 08:29:15;;;;;;;1.88;1.63;;;19.90;1.00;;;;;;5034784;28;20052;-85
2023/08/28 08:31:41;;;;;;;3.47;1.73;;;19.90;1.00;;;;;;5035175;28;20559;-85
2023/08/28 08:34:07;;;;;;;1.73;1.35;;;19.90;1.00;;;;;;5035159;28;20055;-86
2023/08/28 08:36:33;;;;;;;3.40;1.40;;;20.00;1.00;;;;;;5018504;28;20156;-86
2023/08/28 08:38:59;;;;;;;2.47;1.42;;;20.10;1.00;;;;;;5018770;28;20129;-86
2023/08/28 08:41:25;;;;;;;2.10;1.48;;;20.10;1.00;;;;;;5034479;28;20072;-87
2023/08/28 08:43:50;;;;;;;3.80;1.33;;;20.10;1.00;;;;;;5034661;28;20495;-86
2023/08/28 08:46:19;;;;;;;2.83;1.08;;;20.00;1.00;;;;;;5034245;28;20045;-86
2023/08/28 08:48:49;;;;;;;2.10;1.40;;;20.10;1.00;;;;;;5018661;28;20060;-87
2023/08/28 08:51:18;;;;;;;1.83;1.00;;;20.20;1.00;;;;;;5054613;28;20103;-85
2023/08/28 08:53:59;;;;;;;3.42;1.40;;;20.10;1.00;;;;;;5035788;28;20066;-86
2023/08/28 08:56:31;;;;;;;2.28;1.00;;;20.00;1.00;;;;;;5034515;28;20041;-86
2023/08/28 08:58:58;;;;;;;1.88;1.17;;;19.90;1.00;;;;;;5052720;28;20033;-86
2023/08/28 09:01:25;;;;;;;1.88;0.90;;;19.80;1.00;;;;;;5002736;28;20049;-86
2023/08/28 09:03:51;;;;;;;2.72;0.90;;;19.70;1.00;;;;;;5052768;28;20052;-86
2023/08/28 09:06:18;;;;;;;3.22;1.30;;;19.50;1.00;;;;;;5001886;28;20053;-85
2023/08/28 09:08:44;;;;;;;;;;;19.40;1.00;;;;;;5034757;28;20549;-86
2023/08/28 09:11:10;;;;;;;1.80;0.90;;;19.50;1.00;;;;;;5034974;28;19983;-87
2023/08/28 09:13:37;;;;;;;2.53;0.77;;;19.60;1.00;;;;;;5034266;28;20081;-87
2023/08/28 09:16:04;;;;;;;4.15;0.95;;;19.80;1.00;;;;;;5034994;28;20053;-87
2023/08/28 09:18:30;;;;;;;2.13;0.98;;;19.80;1.00;;;;;;5051912;28;20091;-86
2023/08/28 09:21:06;;;;;;;;;;;19.70;1.00;;;;;;5052704;28;20075;-86
2023/08/28 09:23:32;;;;;;;5.28;1.00;;;19.60;1.00;;;;;;5033713;28;19927;-86
2023/08/28 09:25:59;;;;;;;4.75;1.00;;;19.70;1.00;;;;;;5034761;28;20048;-85
2023/08/28 09:28:24;;;;;;;2.60;0.75;;;19.80;1.00;;;;;;5033818;28;20127;-85
2023/08/28 09:30:50;;;;;;;1.85;0.82;;;19.80;1.00;;;;;;5034797;28;20132;-85
2023/08/28 09:33:16;;;;;;;1.15;0.93;;;19.90;1.00;;;;;;5056358;28;20051;-85
2023/08/28 09:35:43;;;;;;;2.80;0.82;;;19.90;1.00;;;;;;5021350;28;20231;-85
2023/08/28 09:38:10;;;;;;;1.63;0.77;;;19.90;1.00;;;;;;5038802;28;20053;-84
2023/08/28 09:40:39;;;;;;;2.95;1.00;;;19.90;1.00;;;;;;5037853;28;20099;-84
2023/08/28 09:43:15;;;;;;;0.85;0.55;;;20.00;1.00;;;;;;5022379;28;20515;-85
2023/08/28 09:45:42;;;;;;;1.23;1.02;;;20.10;1.00;;;;;;5037801;28;20518;-85
2023/08/28 09:48:09;;;;;;;2.70;1.00;;;20.20;1.00;;;;;;5038118;28;20052;-85
2023/08/28 09:50:39;;;;;;;0.82;0.70;;;20.20;1.00;;;;;;5055497;28;20056;-84
2023/08/28 09:53:13;;;;;;;10.40;1.67;;;20.30;1.00;;;;;;5038112;28;20464;-85
2023/08/28 09:55:54;;;;;;;1.63;0.57;;;20.60;1.00;;;;;;5037893;28;20049;-85
2023/08/28 09:58:23;;;;;;;4.07;0.90;;;20.70;99.90;;;;;;5055789;28;20128;-85
2023/08/28 10:00:50;;;;;;;0.65;0.60;;;19.60;1.00;;;;;;5037859;28;20048;-85
2023/08/28 10:03:16;;;;;;;0.98;0.80;;;21.00;1.00;;;;;;5055751;28;20150;-83
2023/08/28 10:05:43;;;;;;;;;;;21.10;99.90;;;;;;5055671;28;20422;-85
2023/08/28 10:08:12;;;;;;;1.08;0.68;;;20.90;99.90;;;;;;5038029;28;19928;-84
2023/08/28 10:10:41;;;;;;;2.33;1.15;;;20.70;1.00;;;;;;5055085;28;20049;-85
2023/08/28 10:13:14;;;;;;;1.30;0.65;;;20.60;99.90;;;;;;5037921;28;20085;-85
2023/08/28 10:16:04;;;;;;;1.92;0.75;;;20.30;1.00;;;;;;5037513;28;20487;-85
2023/08/28 10:18:40;;;;;;;1.40;0.63;;;20.20;99.90;;;;;;5055039;28;20041;-85
2023/08/28 10:21:07;;;;;;;3.88;1.20;;;20.00;99.90;;;;;;5055722;28;20045;-87
2023/08/28 10:23:34;;;;;;;0.90;0.70;;;19.90;1.00;;;;;;5054833;28;20053;-86
2023/08/28 10:26:02;;;;;;;0.93;0.70;;;20.00;1.00;;;;;;5004537;28;20577;-86
2023/08/28 10:28:29;;;;;;;1.30;0.73;;;20.20;99.90;;;;;;5054982;28;20099;-85
2023/08/28 10:30:57;;;;;;;1.85;0.70;;;20.40;99.90;;;;;;5055215;28;20055;-85
2023/08/28 10:33:23;;;;;;;2.47;1.00;;;20.60;99.90;;;;;;5055245;28;20048;-85
2023/08/28 10:35:54;;;;;;;2.28;0.85;;;20.60;99.90;;;;;;5054112;28;20092;-85
2023/08/28 10:38:20;;;;;;;2.30;0.80;;;20.60;99.90;;;;;;5055220;28;20119;-85
2023/08/28 10:40:52;;;;;;;0.98;0.75;;;20.50;99.90;;;;;;4987833;28;20131;-85
2023/08/28 10:43:19;;;;;;;2.15;1.05;;;20.50;1.00;;;;;;5036231;28;20467;-83
2023/08/28 10:45:48;;;;;;;0.75;0.70;;;20.70;1.00;;;;;;5054928;28;20047;-88
2023/08/28 10:48:20;;;;;;;1.08;0.75;;;20.80;99.90;;;;;;5020534;28;20049;-89
2023/08/28 10:50:45;;;;;;;2.72;0.90;;;20.90;99.90;;;;;;5054345;28;20045;-88
2023/08/28 10:53:15;;;;;;;1.20;0.75;;;21.00;99.90;;;;;;5037243;28;20048;-87
2023/08/28 10:55:58;;;;;;;0.70;0.65;;;21.20;99.90;;;;;;5036589;28;20514;-90
2023/08/28 10:58:28;;;;;;;2.08;0.90;;;21.20;99.90;;;;;;5038342;28;20487;-88
2023/08/28 11:01:17;;;;;;;3.92;1.00;;;21.10;99.90;;;;;;5037222;28;20057;-87
2023/08/28 11:03:58;;;;;;;1.00;0.93;;;21.10;99.90;;;;;;5020170;28;20487;-87
2023/08/28 11:06:43;;;;;;;8.27;1.35;;;21.20;99.90;;;;;;5020505;28;20053;-89
2023/08/28 11:09:27;;;;;;;2.45;0.98;;;21.10;99.90;;;;;;5054749;28;20052;-85
2023/08/28 11:12:02;;;;;;;2.42;1.00;;;20.80;99.90;;;;;;5019935;28;20507;-85
2023/08/28 11:14:32;;;;;;;0.82;0.70;;;20.60;99.90;;;;;;5036785;28;20127;-83
2023/08/28 11:17:10;;;;;;;0.88;0.75;;;20.50;1.00;;;;;;5019707;28;20087;-84
2023/08/28 11:22:33;;;;;;;1.98;0.88;;;20.30;99.90;;;;;;5036736;28;20045;-83
2023/08/28 11:25:01;;;;;;;1.92;0.88;;;20.20;99.90;;;;;;5054039;28;20056;-84
2023/08/28 11:27:40;;;;;;;1.52;1.02;;;20.10;1.00;;;;;;5036799;28;20087;-84
2023/08/28 11:30:08;;;;;;;3.63;0.90;;;20.20;1.00;;;;;;5054536;28;20101;-84
2023/08/28 11:32:35;;;;;;;2.50;0.80;;;20.30;1.00;;;;;;5019671;28;20076;-84
2023/08/28 11:35:05;;;;;;;1.27;0.73;;;20.50;1.00;;;;;;5035744;28;20099;-83
2023/08/28 11:37:33;;;;;;;0.70;0.60;;;20.70;1.00;;;;;;5054128;28;20107;-84
2023/08/28 11:39:59;;;;;;;6.38;1.23;;;20.90;1.00;;;;;;5035806;28;20563;-84
2023/08/28 11:42:26;;;;;;;;;;;21.00;1.00;;;;;;5019988;28;20403;-84
2023/08/28 11:44:52;;;;;;;1.52;0.68;;;21.00;99.90;;;;;;5035555;28;20137;-84
2023/08/28 11:47:25;;;;;;;1.95;0.98;;;20.90;1.00;;;;;;5019598;28;20561;-84
2023/08/28 11:49:52;;;;;;;0.85;0.60;;;20.80;99.90;;;;;;5035614;28;20146;-84
2023/08/28 11:52:18;;;;;;;1.55;0.70;;;20.70;99.90;;;;;;5003547;28;20244;-84
2023/08/28 11:54:44;;;;;;;1.08;0.40;;;20.60;99.90;;;;;;5052816;28;20060;-84
2023/08/28 11:57:11;;;;;;;0.73;0.60;;;20.80;99.90;;;;;;5036014;28;20048;-84
2023/08/28 11:59:38;;;;;;;1.27;0.85;;;20.70;99.90;;;;;;5019705;28;20506;-83
2023/08/28 12:02:04;;;;;;;;;;;20.80;99.90;;;;;;5035579;28;20053;-83
2023/08/28 12:04:36;;;;;;;1.65;0.85;;;20.80;99.90;;;;;;5036070;28;20330;-83
2023/08/28 12:07:14;;;;;;;0.73;0.55;;;20.80;99.90;;;;;;5018902;28;20048;-84
2023/08/28 12:09:46;;;;;;;1.02;0.95;;;20.70;99.90;;;;;;5052819;28;20498;-84
2023/08/28 12:12:16;;;;;;;1.25;0.90;;;20.50;99.90;;;;;;5053387;28;20128;-84
2023/08/28 12:14:46;;;;;;;2.08;0.77;;;20.60;99.90;;;;;;5019062;28;20053;-84
2023/08/28 12:17:18;;;;;;;1.42;0.82;;;20.40;99.90;;;;;;5019198;28;20084;-84
2023/08/28 12:19:44;;;;;;;1.83;0.60;;;20.40;99.90;;;;;;5035080;28;20057;-84
2023/08/28 12:22:10;;;;;;;;;;;20.50;99.90;;;;;;5035740;28;20091;-84
2023/08/28 12:24:41;;;;;;;1.85;0.65;;;20.70;99.90;;;;;;5019126;28;19968;-85
2023/08/28 12:27:08;;;;;;;3.45;0.63;;;20.70;99.90;;;;;;5018491;28;20067;-84
2023/08/28 12:29:34;;;;;;;0.70;0.70;;;20.60;99.90;;;;;;5031115;28;20504;-86
2023/08/28 12:32:05;;;;;;;;;;;20.40;99.90;;;;;;5023535;28;20064;-86
2023/08/28 12:34:32;;;;;;;1.55;0.88;;;20.20;99.90;;;;;;5029428;28;20382;-85
2023/08/28 12:37:06;;;;;;;2.78;1.20;;;20.20;99.90;;;;;;5033055;28;20053;-86
2023/08/28 12:39:32;;;;;;;1.10;1.00;;;20.40;99.90;;;;;;5002207;28;20044;-86
2023/08/28 12:41:58;;;;;;;1.38;0.70;;;20.50;99.90;;;;;;5018254;28;20136;-86
2023/08/28 12:44:27;;;;;;;3.42;1.35;;;20.50;99.90;;;;;;5035202;28;20132;-86
2023/08/28 12:46:52;;;;;;;0.60;0.60;;;20.60;99.90;;;;;;5018090;28;20049;-86
2023/08/28 12:49:21;;;;;;;1.05;0.70;;;20.70;99.90;;;;;;5034566;28;20044;-86
2023/08/28 12:51:49;;;;;;;0.57;0.57;;;20.90;99.90;;;;;;5035286;28;20136;-86
2023/08/28 12:54:21;;;;;;;1.10;0.90;;;21.10;99.90;;;;;;5053619;28;20110;-86
2023/08/28 12:56:53;;;;;;;0.43;0.32;;;21.20;75.20;;;;;;5019742;28;20506;-86
2023/08/28 12:59:22;;;;;;;5.00;0.90;;;21.80;1.00;;;;;;5054553;28;20068;-86